sensor_id;sensor_type;location;lat;lon;timestamp;P1;P2;P0
55857;PMS7003;41779;52.360;31.026;2022-10-16T00:04:23;19.6;16.8;11.4
55857;PMS7003;41779;52.360;31.026;2022-10-16T00:09:06;17.4;13.6;10.6
55857;PMS7003;41779;52.360;31.026;2022-10-16T00:13:46;17.6;13.4;10
55857;PMS7003;41779;52.360;31.026;2022-10-16T00:18:59;19.6;17;11.8
55857;PMS7003;41779;52.360;31.026;2022-10-16T00:24:27;21;16.2;11.6
55857;PMS7003;41779;52.360;31.026;2022-10-16T00:29:10;17.2;14.8;11.4
55857;PMS7003;41779;52.360;31.026;2022-10-16T00:34:09;18.3;14;11
55857;PMS7003;41779;52.360;31.026;2022-10-16T00:38:57;19.2;13.6;9.8
55857;PMS7003;41779;52.360;31.026;2022-10-16T00:44:48;19.2;15.6;11.6
55857;PMS7003;41779;52.360;31.026;2022-10-16T00:49:19;16.6;13.4;9.8
55857;PMS7003;41779;52.360;31.026;2022-10-16T00:54:26;16.6;13.2;10.6
55857;PMS7003;41779;52.360;31.026;2022-10-16T00:58:48;20;14.2;10
55857;PMS7003;41779;52.360;31.026;2022-10-16T01:04:28;18;12.4;10.4
55857;PMS7003;41779;52.360;31.026;2022-10-16T01:08:48;18.6;13.8;11
55857;PMS7003;41779;52.360;31.026;2022-10-16T01:14:13;17.2;13.4;10.8
55857;PMS7003;41779;52.360;31.026;2022-10-16T01:19:32;16.8;14.2;10.8
55857;PMS7003;41779;52.360;31.026;2022-10-16T01:24:25;17.6;13.6;10
55857;PMS7003;41779;52.360;31.026;2022-10-16T01:29:28;17.2;12.2;9.6
55857;PMS7003;41779;52.360;31.026;2022-10-16T01:33:56;17.5;14;11
55857;PMS7003;41779;52.360;31.026;2022-10-16T01:39:08;15;11.6;9.8
55857;PMS7003;41779;52.360;31.026;2022-10-16T01:43:46;16.4;12.8;10.4
55857;PMS7003;41779;52.360;31.026;2022-10-16T01:49:21;18.6;14;10
55857;PMS7003;41779;52.360;31.026;2022-10-16T01:54:06;16.4;12.4;9
55857;PMS7003;41779;52.360;31.026;2022-10-16T01:58:58;16.8;13.4;9.6
55857;PMS7003;41779;52.360;31.026;2022-10-16T02:03:56;16.2;13;9.6
55857;PMS7003;41779;52.360;31.026;2022-10-16T02:09:21;17.6;13.2;10.4
55857;PMS7003;41779;52.360;31.026;2022-10-16T02:14:25;13.6;12.8;10
55857;PMS7003;41779;52.360;31.026;2022-10-16T02:18:57;17;12.2;9.8
55857;PMS7003;41779;52.360;31.026;2022-10-16T02:24:17;14.8;12;10
55857;PMS7003;41779;52.360;31.026;2022-10-16T02:29:16;16.8;11.4;9
55857;PMS7003;41779;52.360;31.026;2022-10-16T02:34:25;17.4;12.2;10.4
55857;PMS7003;41779;52.360;31.026;2022-10-16T02:38:45;16.3;11.3;8.8
55857;PMS7003;41779;52.360;31.026;2022-10-16T02:43:45;16.4;13.4;10.4
55857;PMS7003;41779;52.360;31.026;2022-10-16T02:48:45;13.8;12.4;10.2
55857;PMS7003;41779;52.360;31.026;2022-10-16T02:53:57;14.8;11;9
55857;PMS7003;41779;52.360;31.026;2022-10-16T02:59:29;16;12.2;9.8
55857;PMS7003;41779;52.360;31.026;2022-10-16T03:04:09;15.2;13.6;10.4
55857;PMS7003;41779;52.360;31.026;2022-10-16T03:09:19;15.6;13.6;10.6
55857;PMS7003;41779;52.360;31.026;2022-10-16T03:14:19;13.8;12;9.4
55857;PMS7003;41779;52.360;31.026;2022-10-16T03:19:29;16;13.6;10.6
55857;PMS7003;41779;52.360;31.026;2022-10-16T03:24:19;16.8;13.8;10.2
55857;PMS7003;41779;52.360;31.026;2022-10-16T03:29:31;16.6;14.8;10.8
55857;PMS7003;41779;52.360;31.026;2022-10-16T03:33:45;25.4;19.4;15
55857;PMS7003;41779;52.360;31.026;2022-10-16T03:38:57;21.3;16.5;13.5
55857;PMS7003;41779;52.360;31.026;2022-10-16T03:43:59;19.2;14.8;10.8
55857;PMS7003;41779;52.360;31.026;2022-10-16T03:49:19;17.4;14;10.4
55857;PMS7003;41779;52.360;31.026;2022-10-16T03:54:31;17.2;13.6;11
55857;PMS7003;41779;52.360;31.026;2022-10-16T03:58:45;18.6;14.6;12.4
55857;PMS7003;41779;52.360;31.026;2022-10-16T04:04:19;21;15.4;11.2
55857;PMS7003;41779;52.360;31.026;2022-10-16T04:09:17;16.2;12;9.6
55857;PMS7003;41779;52.360;31.026;2022-10-16T04:13:53;21.6;14.8;11.6
55857;PMS7003;41779;52.360;31.026;2022-10-16T04:19:10;17.8;15.8;11.4
55857;PMS7003;41779;52.360;31.026;2022-10-16T04:23:45;17.4;15.2;12
55857;PMS7003;41779;52.360;31.026;2022-10-16T04:28:45;20;15.2;12
55857;PMS7003;41779;52.360;31.026;2022-10-16T04:33:45;16.6;14.6;11.8
55857;PMS7003;41779;52.360;31.026;2022-10-16T04:38:55;19.5;14.8;11
55857;PMS7003;41779;52.360;31.026;2022-10-16T04:44:31;19.2;15.4;12
55857;PMS7003;41779;52.360;31.026;2022-10-16T04:49:21;20.4;15.6;11.2
55857;PMS7003;41779;52.360;31.026;2022-10-16T04:54:08;22;15.6;11.4
55857;PMS7003;41779;52.360;31.026;2022-10-16T04:58:57;23.2;17.4;13
55857;PMS7003;41779;52.360;31.026;2022-10-16T05:04:33;18.8;14.8;11
55857;PMS7003;41779;52.360;31.026;2022-10-16T05:09:33;23;18;12.8
55857;PMS7003;41779;52.360;31.026;2022-10-16T05:14:11;18.8;14.2;10.4
55857;PMS7003;41779;52.360;31.026;2022-10-16T05:19:11;17.8;13.6;10.2
55857;PMS7003;41779;52.360;31.026;2022-10-16T05:23:45;17.6;13.4;9.8
55857;PMS7003;41779;52.360;31.026;2022-10-16T05:29:21;15;11.8;10
55857;PMS7003;41779;52.360;31.026;2022-10-16T05:34:11;19;14.2;10.4
55857;PMS7003;41779;52.360;31.026;2022-10-16T05:39:21;15;12.3;9.8
55857;PMS7003;41779;52.360;31.026;2022-10-16T05:44:33;16.6;11.4;9.4
55857;PMS7003;41779;52.360;31.026;2022-10-16T05:49:33;14.8;12;9.2
55857;PMS7003;41779;52.360;31.026;2022-10-16T05:54:21;15.8;11.8;8.8
55857;PMS7003;41779;52.360;31.026;2022-10-16T05:59:33;14.8;11.2;9.4
55857;PMS7003;41779;52.360;31.026;2022-10-16T06:03:46;14.6;11.6;9.4
55857;PMS7003;41779;52.360;31.026;2022-10-16T06:08:57;17.2;12.2;8.6
55857;PMS7003;41779;52.360;31.026;2022-10-16T06:13:56;17.4;13.6;11.2
55857;PMS7003;41779;52.360;31.026;2022-10-16T06:18:57;14.8;11.4;9.2
55857;PMS7003;41779;52.360;31.026;2022-10-16T06:24:31;15.6;11.2;9
55857;PMS7003;41779;52.360;31.026;2022-10-16T06:28:46;15.4;13.6;10.2
55857;PMS7003;41779;52.360;31.026;2022-10-16T06:34:21;14.4;10.4;7.4
55857;PMS7003;41779;52.360;31.026;2022-10-16T06:39:21;12.5;10.3;7.3
55857;PMS7003;41779;52.360;31.026;2022-10-16T06:44:09;14.8;10.8;8.6
55857;PMS7003;41779;52.360;31.026;2022-10-16T06:49:09;16;12.8;10
55857;PMS7003;41779;52.360;31.026;2022-10-16T06:53:57;12;10;8.6
55857;PMS7003;41779;52.360;31.026;2022-10-16T06:58:46;11.2;10.2;8.2
55857;PMS7003;41779;52.360;31.026;2022-10-16T07:03:45;13.2;10;8.6
55857;PMS7003;41779;52.360;31.026;2022-10-16T07:09:11;13.4;11.4;9.2
55857;PMS7003;41779;52.360;31.026;2022-10-16T07:14:31;11.8;9.6;7.4
55857;PMS7003;41779;52.360;31.026;2022-10-16T07:19:33;15.6;13.4;10.8
55857;PMS7003;41779;52.360;31.026;2022-10-16T07:24:10;13.8;11.2;8.4
55857;PMS7003;41779;52.360;31.026;2022-10-16T07:29:09;14.8;13.2;9.4
55857;PMS7003;41779;52.360;31.026;2022-10-16T07:34:19;14.2;12;9.2
55857;PMS7003;41779;52.360;31.026;2022-10-16T07:39:31;10.8;9.6;8
55857;PMS7003;41779;52.360;31.026;2022-10-16T07:44:09;13.5;10.8;8.3
55857;PMS7003;41779;52.360;31.026;2022-10-16T07:48:59;12.6;9.4;7.8
55857;PMS7003;41779;52.360;31.026;2022-10-16T07:54:01;12.6;10.2;8.2
55857;PMS7003;41779;52.360;31.026;2022-10-16T07:59:21;11.6;10.2;8
55857;PMS7003;41779;52.360;31.026;2022-10-16T08:04:11;11.6;10;8
55857;PMS7003;41779;52.360;31.026;2022-10-16T08:09:08;11.2;9.6;7.8
55857;PMS7003;41779;52.360;31.026;2022-10-16T08:14:20;9.6;7.8;6.4
55857;PMS7003;41779;52.360;31.026;2022-10-16T08:19:21;11.2;10.2;8.2
55857;PMS7003;41779;52.360;31.026;2022-10-16T08:24:23;9.6;7.6;6.2
55857;PMS7003;41779;52.360;31.026;2022-10-16T08:29:25;7.6;6.2;5
55857;PMS7003;41779;52.360;31.026;2022-10-16T08:34:09;8.8;7;5.8
55857;PMS7003;41779;52.360;31.026;2022-10-16T08:38:55;7.4;6.6;5
55857;PMS7003;41779;52.360;31.026;2022-10-16T08:44:06;8.5;7;6.5
55857;PMS7003;41779;52.360;31.026;2022-10-16T08:49:31;7.4;6.4;5.2
55857;PMS7003;41779;52.360;31.026;2022-10-16T08:54:17;8.6;7.4;6
55857;PMS7003;41779;52.360;31.026;2022-10-16T08:59:23;7.8;7;5.6
55857;PMS7003;41779;52.360;31.026;2022-10-16T09:04:40;8.2;6.8;5.4
55857;PMS7003;41779;52.360;31.026;2022-10-16T09:09:26;7.8;6.4;5.6
55857;PMS7003;41779;52.360;31.026;2022-10-16T09:14:17;9.2;6.8;5.4
55857;PMS7003;41779;52.360;31.026;2022-10-16T09:19:13;6;5.4;4.4
55857;PMS7003;41779;52.360;31.026;2022-10-16T09:24:25;6.6;5.4;4.4
55857;PMS7003;41779;52.360;31.026;2022-10-16T09:28:43;6;5.6;4.6
55857;PMS7003;41779;52.360;31.026;2022-10-16T09:34:00;5.2;4.6;3.6
55857;PMS7003;41779;52.360;31.026;2022-10-16T09:39:03;6;5;4.2
55857;PMS7003;41779;52.360;31.026;2022-10-16T09:44:33;6;4.5;3.5
55857;PMS7003;41779;52.360;31.026;2022-10-16T09:49:33;6;4.6;3.4
55857;PMS7003;41779;52.360;31.026;2022-10-16T09:53:54;6.2;4.8;3.8
55857;PMS7003;41779;52.360;31.026;2022-10-16T09:58:54;5.8;4.6;4.2
55857;PMS7003;41779;52.360;31.026;2022-10-16T10:04:13;6.2;5.2;4.6
55857;PMS7003;41779;52.360;31.026;2022-10-16T10:09:34;5.8;5;4.2
55857;PMS7003;41779;52.360;31.026;2022-10-16T10:14:27;6;5;4.6
55857;PMS7003;41779;52.360;31.026;2022-10-16T10:18:45;5.8;5.2;3.8
55857;PMS7003;41779;52.360;31.026;2022-10-16T10:24:09;6.4;5.4;4.2
55857;PMS7003;41779;52.360;31.026;2022-10-16T10:29:28;6.6;5.4;4.2
55857;PMS7003;41779;52.360;31.026;2022-10-16T10:34:17;8;5.4;4
55857;PMS7003;41779;52.360;31.026;2022-10-16T10:39:12;6.8;6.4;5
55857;PMS7003;41779;52.360;31.026;2022-10-16T10:44:25;6.8;5.8;4.8
55857;PMS7003;41779;52.360;31.026;2022-10-16T10:49:27;5.4;4.6;3.6
55857;PMS7003;41779;52.360;31.026;2022-10-16T10:54:27;5.8;4.6;3.6
55857;PMS7003;41779;52.360;31.026;2022-10-16T10:59:45;5.2;4;3.2
55857;PMS7003;41779;52.360;31.026;2022-10-16T11:03:57;4;3.6;3.4
55857;PMS7003;41779;52.360;31.026;2022-10-16T11:09:23;4;3.8;3.4
55857;PMS7003;41779;52.360;31.026;2022-10-16T11:14:00;6.4;4.8;3.8
55857;PMS7003;41779;52.360;31.026;2022-10-16T11:19:10;6.6;4.6;3.8
55857;PMS7003;41779;52.360;31.026;2022-10-16T11:24:29;6.4;4.8;4.6
55857;PMS7003;41779;52.360;31.026;2022-10-16T11:29:26;5;4.6;3.6
55857;PMS7003;41779;52.360;31.026;2022-10-16T11:34:22;5.8;4.4;3.8
55857;PMS7003;41779;52.360;31.026;2022-10-16T11:38:55;5.6;4.2;3.4
55857;PMS7003;41779;52.360;31.026;2022-10-16T11:44:15;6;4;3.5
55857;PMS7003;41779;52.360;31.026;2022-10-16T11:49:12;5.2;4.6;4.2
55857;PMS7003;41779;52.360;31.026;2022-10-16T11:54:27;5;4.2;3.6
55857;PMS7003;41779;52.360;31.026;2022-10-16T11:59:02;5.8;4.6;4
55857;PMS7003;41779;52.360;31.026;2022-10-16T12:04:14;5.6;4.2;3.6
55857;PMS7003;41779;52.360;31.026;2022-10-16T12:09:00;6.2;4.6;4
55857;PMS7003;41779;52.360;31.026;2022-10-16T12:14:07;4.8;3.8;3.2
55857;PMS7003;41779;52.360;31.026;2022-10-16T12:19:38;4.4;4;3.6
55857;PMS7003;41779;52.360;31.026;2022-10-16T12:24:39;7;5.2;4.4
55857;PMS7003;41779;52.360;31.026;2022-10-16T12:28:54;5.6;4.8;4.4
55857;PMS7003;41779;52.360;31.026;2022-10-16T12:34:14;5.8;4.6;4
55857;PMS7003;41779;52.360;31.026;2022-10-16T12:39:36;6.4;5.2;4.8
55857;PMS7003;41779;52.360;31.026;2022-10-16T12:44:34;5.8;5;4.4
55857;PMS7003;41779;52.360;31.026;2022-10-16T12:49:22;6.8;5.5;4.5
55857;PMS7003;41779;52.360;31.026;2022-10-16T12:53:59;6.8;5.2;4.6
55857;PMS7003;41779;52.360;31.026;2022-10-16T12:59:34;8;6.4;4.8
55857;PMS7003;41779;52.360;31.026;2022-10-16T13:04:29;7.8;6;4.8
55857;PMS7003;41779;52.360;31.026;2022-10-16T13:09:02;7;5.2;4.6
55857;PMS7003;41779;52.360;31.026;2022-10-16T13:14:22;6.6;5.6;4.6
55857;PMS7003;41779;52.360;31.026;2022-10-16T13:19:22;8.6;7.2;5.8
55857;PMS7003;41779;52.360;31.026;2022-10-16T13:24:40;6.8;6;5.4
55857;PMS7003;41779;52.360;31.026;2022-10-16T13:29:28;7.2;5.4;4.8
55857;PMS7003;41779;52.360;31.026;2022-10-16T13:34:41;6.2;5.6;4.4
55857;PMS7003;41779;52.360;31.026;2022-10-16T13:38:46;12;9.4;6.4
55857;PMS7003;41779;52.360;31.026;2022-10-16T13:44:24;10.8;9;7.4
55857;PMS7003;41779;52.360;31.026;2022-10-16T13:49:14;8;6.8;5.8
55857;PMS7003;41779;52.360;31.026;2022-10-16T13:54:24;9.8;7.2;5.8
55857;PMS7003;41779;52.360;31.026;2022-10-16T13:59:36;11.2;9.6;7.8
55857;PMS7003;41779;52.360;31.026;2022-10-16T14:04:07;7.6;6;5.2
55857;PMS7003;41779;52.360;31.026;2022-10-16T14:08:48;8.2;5.8;5.2
55857;PMS7003;41779;52.360;31.026;2022-10-16T14:14:24;10.4;7.6;5.8
55857;PMS7003;41779;52.360;31.026;2022-10-16T14:19:26;10.2;8;5.4
55857;PMS7003;41779;52.360;31.026;2022-10-16T14:23:58;9;6.8;5.8
55857;PMS7003;41779;52.360;31.026;2022-10-16T14:29:02;8.6;7.2;5.8
55857;PMS7003;41779;52.360;31.026;2022-10-16T14:34:39;10.6;7;5.8
55857;PMS7003;41779;52.360;31.026;2022-10-16T14:38:48;9.6;7.6;6
55857;PMS7003;41779;52.360;31.026;2022-10-16T14:43:56;7.4;6.4;5
55857;PMS7003;41779;52.360;31.026;2022-10-16T14:49:36;11.5;9.3;6.8
55857;PMS7003;41779;52.360;31.026;2022-10-16T14:54:22;9;7.2;5.2
55857;PMS7003;41779;52.360;31.026;2022-10-16T14:59:08;9.6;7.8;5.2
55857;PMS7003;41779;52.360;31.026;2022-10-16T15:04:10;9.2;7.8;5.8
55857;PMS7003;41779;52.360;31.026;2022-10-16T15:09:36;8.2;7;6
55857;PMS7003;41779;52.360;31.026;2022-10-16T15:14:36;7.8;7.4;5.4
55857;PMS7003;41779;52.360;31.026;2022-10-16T15:19:02;14.8;12;8.2
55857;PMS7003;41779;52.360;31.026;2022-10-16T15:23:46;10.6;8.4;6
55857;PMS7003;41779;52.360;31.026;2022-10-16T15:28:54;9.4;7.4;5.6
55857;PMS7003;41779;52.360;31.026;2022-10-16T15:33:46;12.4;9.2;7.4
55857;PMS7003;41779;52.360;31.026;2022-10-16T15:39:12;10.4;8.4;6.8
55857;PMS7003;41779;52.360;31.026;2022-10-16T15:44:22;10.6;9.6;7.6
55857;PMS7003;41779;52.360;31.026;2022-10-16T15:49:24;14;9.3;8.3
55857;PMS7003;41779;52.360;31.026;2022-10-16T15:54:36;15;13;9.8
55857;PMS7003;41779;52.360;31.026;2022-10-16T15:59:34;13.8;11.4;9.2
55857;PMS7003;41779;52.360;31.026;2022-10-16T16:04:36;12.2;9.8;8
55857;PMS7003;41779;52.360;31.026;2022-10-16T16:08:46;11;9.2;8.2
55857;PMS7003;41779;52.360;31.026;2022-10-16T16:14:00;11.2;9.4;7.4
55857;PMS7003;41779;52.360;31.026;2022-10-16T16:18:46;11.6;9.4;7.8
55857;PMS7003;41779;52.360;31.026;2022-10-16T16:24:20;12;9;7
55857;PMS7003;41779;52.360;31.026;2022-10-16T16:29:32;11.3;8.8;7
55857;PMS7003;41779;52.360;31.026;2022-10-16T16:34:22;10.6;7.4;5.8
55857;PMS7003;41779;52.360;31.026;2022-10-16T16:39:36;10.4;8.2;6.8
55857;PMS7003;41779;52.360;31.026;2022-10-16T16:44:20;10.6;9;6.2
55857;PMS7003;41779;52.360;31.026;2022-10-16T16:48:46;19.2;14.4;10.6
55857;PMS7003;41779;52.360;31.026;2022-10-16T16:54:00;18.6;13.4;10.6
55857;PMS7003;41779;52.360;31.026;2022-10-16T16:59:14;16;12.8;9.4
55857;PMS7003;41779;52.360;31.026;2022-10-16T17:04:00;13.2;10.2;7.8
55857;PMS7003;41779;52.360;31.026;2022-10-16T17:08:58;11.8;10.3;7.5
55857;PMS7003;41779;52.360;31.026;2022-10-16T17:13:56;9.4;8.4;7
55857;PMS7003;41779;52.360;31.026;2022-10-16T17:19:32;12;9.8;8.2
55857;PMS7003;41779;52.360;31.026;2022-10-16T17:24:32;14;10.3;8.5
55857;PMS7003;41779;52.360;31.026;2022-10-16T17:29:10;21.6;15.8;11.8
55857;PMS7003;41779;52.360;31.026;2022-10-16T17:33:46;16;10.6;8.6
55857;PMS7003;41779;52.360;31.026;2022-10-16T17:39:32;17;12.8;9
55857;PMS7003;41779;52.360;31.026;2022-10-16T17:44:32;13;10.2;8
55857;PMS7003;41779;52.360;31.026;2022-10-16T17:49:12;18.6;14.8;11
55857;PMS7003;41779;52.360;31.026;2022-10-16T17:53:57;15.8;12.4;10
55857;PMS7003;41779;52.360;31.026;2022-10-16T17:58:47;11.6;9.2;7.8
55857;PMS7003;41779;52.360;31.026;2022-10-16T18:04:24;12.8;9.4;7
55857;PMS7003;41779;52.360;31.026;2022-10-16T18:09:09;10.4;8.8;7.2
55857;PMS7003;41779;52.360;31.026;2022-10-16T18:13:54;19.8;14.2;10.2
55857;PMS7003;41779;52.360;31.026;2022-10-16T18:19:24;11.3;7.7;6.3
55857;PMS7003;41779;52.360;31.026;2022-10-16T18:24:22;10.8;8.4;6.4
55857;PMS7003;41779;52.360;31.026;2022-10-16T18:29:22;11.4;9.8;7.4
55857;PMS7003;41779;52.360;31.026;2022-10-16T18:34:36;11.8;9.2;7.8
55857;PMS7003;41779;52.360;31.026;2022-10-16T18:39:24;9.8;8.6;7
55857;PMS7003;41779;52.360;31.026;2022-10-16T18:44:24;10.4;8.2;6.8
55857;PMS7003;41779;52.360;31.026;2022-10-16T18:49:10;10;8.8;7.3
55857;PMS7003;41779;52.360;31.026;2022-10-16T18:54:36;10.2;7.8;6.8
55857;PMS7003;41779;52.360;31.026;2022-10-16T18:59:36;10.6;8.4;6.6
55857;PMS7003;41779;52.360;31.026;2022-10-16T19:04:24;13.8;9.6;7.4
55857;PMS7003;41779;52.360;31.026;2022-10-16T19:09:34;11.6;8.8;7.2
55857;PMS7003;41779;52.360;31.026;2022-10-16T19:14:20;18.6;13.6;9.6
55857;PMS7003;41779;52.360;31.026;2022-10-16T19:19:13;11.4;8.8;7.2
55857;PMS7003;41779;52.360;31.026;2022-10-16T19:24:12;10.6;8.4;7.4
55857;PMS7003;41779;52.360;31.026;2022-10-16T19:29:24;12;9.2;7.6
55857;PMS7003;41779;52.360;31.026;2022-10-16T19:33:46;12;11.4;9.6
55857;PMS7003;41779;52.360;31.026;2022-10-16T19:38:46;18.2;12.2;9
55857;PMS7003;41779;52.360;31.026;2022-10-16T19:44:07;11;8.6;6.8
55857;PMS7003;41779;52.360;31.026;2022-10-16T19:49:34;12;9.8;7.5
55857;PMS7003;41779;52.360;31.026;2022-10-16T19:54:36;10.4;8;7.4
55857;PMS7003;41779;52.360;31.026;2022-10-16T19:58:46;11.6;9.6;7.2
55857;PMS7003;41779;52.360;31.026;2022-10-16T20:03:56;11.4;8.2;6.8
55857;PMS7003;41779;52.360;31.026;2022-10-16T20:09:22;11.4;9.8;7.6
55857;PMS7003;41779;52.360;31.026;2022-10-16T20:14:34;10.4;8.8;7
55857;PMS7003;41779;52.360;31.026;2022-10-16T20:19:12;10.4;8.6;6.8
55857;PMS7003;41779;52.360;31.026;2022-10-16T20:23:52;10.2;7.2;6.8
55857;PMS7003;41779;52.360;31.026;2022-10-16T20:29:00;9.4;8;7
55857;PMS7003;41779;52.360;31.026;2022-10-16T20:34:24;12.2;9.4;7.6
55857;PMS7003;41779;52.360;31.026;2022-10-16T20:38:46;10.8;8.6;7.4
55857;PMS7003;41779;52.360;31.026;2022-10-16T20:44:10;12;10.2;8.2
55857;PMS7003;41779;52.360;31.026;2022-10-16T20:49:26;11.8;10;8
55857;PMS7003;41779;52.360;31.026;2022-10-16T20:54:38;11.8;10.6;7.2
55857;PMS7003;41779;52.360;31.026;2022-10-16T20:59:24;14.8;11.2;7.8
55857;PMS7003;41779;52.360;31.026;2022-10-16T21:04:36;12.2;9.4;8
55857;PMS7003;41779;52.360;31.026;2022-10-16T21:09:24;11;8.2;6.8
55857;PMS7003;41779;52.360;31.026;2022-10-16T21:13:46;10.2;7.2;6.2
55857;PMS7003;41779;52.360;31.026;2022-10-16T21:19:14;10.8;8.6;7.2
55857;PMS7003;41779;52.360;31.026;2022-10-16T21:24:00;11;9.2;7.4
55857;PMS7003;41779;52.360;31.026;2022-10-16T21:29:34;10.4;8.4;6.8
55857;PMS7003;41779;52.360;31.026;2022-10-16T21:34:34;12.4;8.8;7
55857;PMS7003;41779;52.360;31.026;2022-10-16T21:38:59;9.4;7.4;5.8
55857;PMS7003;41779;52.360;31.026;2022-10-16T21:44:36;10.6;8.2;6.6
55857;PMS7003;41779;52.360;31.026;2022-10-16T21:49:24;13.8;9.6;7.4
55857;PMS7003;41779;52.360;31.026;2022-10-16T21:54:24;11.8;8.8;7
55857;PMS7003;41779;52.360;31.026;2022-10-16T21:59:26;11.2;9.4;7.4
55857;PMS7003;41779;52.360;31.026;2022-10-16T22:04:02;9.2;8;6.8
55857;PMS7003;41779;52.360;31.026;2022-10-16T22:08:47;10.6;7.8;6.8
55857;PMS7003;41779;52.360;31.026;2022-10-16T22:13:46;10.8;7.8;6.4
55857;PMS7003;41779;52.360;31.026;2022-10-16T22:19:26;9.8;7.8;6.6
55857;PMS7003;41779;52.360;31.026;2022-10-16T22:24:36;10.6;7.6;6
55857;PMS7003;41779;52.360;31.026;2022-10-16T22:29:36;10.4;8.6;6.2
55857;PMS7003;41779;52.360;31.026;2022-10-16T22:34:10;9.6;8.2;7.2
55857;PMS7003;41779;52.360;31.026;2022-10-16T22:38:58;10;7.8;6
55857;PMS7003;41779;52.360;31.026;2022-10-16T22:44:34;10.4;8.6;7.4
55857;PMS7003;41779;52.360;31.026;2022-10-16T22:49:34;12;9.2;7.2
55857;PMS7003;41779;52.360;31.026;2022-10-16T22:53:46;10.5;9.5;7.5
55857;PMS7003;41779;52.360;31.026;2022-10-16T22:58:44;12.6;8.4;7.2
55857;PMS7003;41779;52.360;31.026;2022-10-16T23:03:52;12.6;9.2;7.6
55857;PMS7003;41779;52.360;31.026;2022-10-16T23:09:24;10.8;8.8;7.2
55857;PMS7003;41779;52.360;31.026;2022-10-16T23:14:10;13.8;11.4;8.8
55857;PMS7003;41779;52.360;31.026;2022-10-16T23:19:12;14.6;11.4;7.8
55857;PMS7003;41779;52.360;31.026;2022-10-16T23:24:18;13.8;9;7.8
55857;PMS7003;41779;52.360;31.026;2022-10-16T23:29:30;14.2;10.6;7.8
55857;PMS7003;41779;52.360;31.026;2022-10-16T23:34:20;13.8;10;7.8
55857;PMS7003;41779;52.360;31.026;2022-10-16T23:39:28;11.4;9.4;7.2
55857;PMS7003;41779;52.360;31.026;2022-10-16T23:43:58;10;9;7.4
55857;PMS7003;41779;52.360;31.026;2022-10-16T23:48:44;11.8;9.8;7.6
55857;PMS7003;41779;52.360;31.026;2022-10-16T23:54:10;12;11;8.3
55857;PMS7003;41779;52.360;31.026;2022-10-16T23:58:48;13.4;10.6;8
